﻿<?xml version="1.0" encoding="UTF-8" standalone="no" ?>
<gpx xmlns="http://www.topografix.com/GPX/1/1" creator="CompeGPS" version="1.1" xmlns:xsi="http://www.w3.org/2001/XMLSchema-instance" xsi:schemaLocation="http://www.topografix.com/GPX/1/1 http://www.topografix.com/GPX/1/1/gpx.xsd http://www.garmin.com/xmlschemas/GpxExtensions/v3 http://www.garmin.com/xmlschemas/GpxExtensionsv3.xsd http://www.garmin.com/xmlschemas/TrackPointExtension/v1 http://www.garmin.com/xmlschemas/TrackPointExtensionv1.xsd" xmlns:gpxtpx="http://www.garmin.com/xmlschemas/TrackPointExtension/v1">
  <metadata>
    <link href="http://www.compegps.com">
      <text>CompeGPS TEAM, SL</text>
    </link>
    <time>2012-11-02T19:18:23Z</time>
    <bounds maxlat="43.170946" maxlon="0.926841" minlat="43.162392" minlon="0.907417"/>
  </metadata>
<wpt lat="43.170360" lon="0.917094">
<ele>294</ele>
<name> Aire de pique-nique</name>
</wpt>
<wpt lat="43.170488" lon="0.915047">
<ele>295</ele>
<name>Pont sur la Noue</name>
</wpt>
<wpt lat="43.164312" lon="0.926841">
<ele>295</ele>
<name>Bifurcation </name>
</wpt>
<wpt lat="43.164384" lon="0.924580">
<ele>335</ele>
<name>Sentier de crete</name>
</wpt>
<wpt lat="43.167203" lon="0.916647">
<ele>397</ele>
<name>Fin sentier de crete</name>
</wpt>
<wpt lat="43.165666" lon="0.915307">
<ele>410</ele>
<name>Carrefour Jean-Ferrat</name>
</wpt>
<wpt lat="43.162960" lon="0.907522">
<ele>338</ele>
<name>Carrefour 2</name>
</wpt>
<wpt lat="43.169289" lon="0.910449">
<ele>309</ele>
<name>Passerelle</name>
</wpt>
  <trk>
    <name>Sentier des cretes</name>
    <trkseg>
      <trkpt lat="43.170360" lon="0.917094">
        <ele>330.4</ele>
        <time>2012-11-02T09:00:23Z</time>
        <name> Aire de pique-nique</name>
      </trkpt>
      <trkpt lat="43.170415" lon="0.916990">
        <ele>330.8</ele>
        <time>2012-11-02T09:00:41Z</time>
      </trkpt>
      <trkpt lat="43.170449" lon="0.916863">
        <ele>329.9</ele>
        <time>2012-11-02T09:00:50Z</time>
      </trkpt>
      <trkpt lat="43.170470" lon="0.916734">
        <ele>329.9</ele>
        <time>2012-11-02T09:00:57Z</time>
      </trkpt>
      <trkpt lat="43.170506" lon="0.916596">
        <ele>330.4</ele>
        <time>2012-11-02T09:01:04Z</time>
      </trkpt>
      <trkpt lat="43.170534" lon="0.916473">
        <ele>330.4</ele>
        <time>2012-11-02T09:01:12Z</time>
      </trkpt>
      <trkpt lat="43.170566" lon="0.916348">
        <ele>329.9</ele>
        <time>2012-11-02T09:01:23Z</time>
      </trkpt>
      <trkpt lat="43.170604" lon="0.916224">
        <ele>329.9</ele>
        <time>2012-11-02T09:01:31Z</time>
      </trkpt>
      <trkpt lat="43.170671" lon="0.916112">
        <ele>329.9</ele>
        <time>2012-11-02T09:01:40Z</time>
      </trkpt>
      <trkpt lat="43.170745" lon="0.915997">
        <ele>329.9</ele>
        <time>2012-11-02T09:01:48Z</time>
      </trkpt>
      <trkpt lat="43.170816" lon="0.915882">
        <ele>328.9</ele>
        <time>2012-11-02T09:01:57Z</time>
      </trkpt>
      <trkpt lat="43.170884" lon="0.915768">
        <ele>329.4</ele>
        <time>2012-11-02T09:02:06Z</time>
      </trkpt>
      <trkpt lat="43.170935" lon="0.915650">
        <ele>329.4</ele>
        <time>2012-11-02T09:02:15Z</time>
      </trkpt>
      <trkpt lat="43.170889" lon="0.915526">
        <ele>328.9</ele>
        <time>2012-11-02T09:02:26Z</time>
      </trkpt>
      <trkpt lat="43.170807" lon="0.915401">
        <ele>328.4</ele>
        <time>2012-11-02T09:02:40Z</time>
      </trkpt>
      <trkpt lat="43.170700" lon="0.915245">
        <ele>328.9</ele>
        <time>2012-11-02T09:02:50Z</time>
      </trkpt>
      <trkpt lat="43.170592" lon="0.915128">
        <ele>328.9</ele>
        <time>2012-11-02T09:03:03Z</time>
      </trkpt>
      <trkpt lat="43.170488" lon="0.915047">
        <ele>328.4</ele>
        <time>2012-11-02T09:03:16Z</time>
        <name>Pont sur la Noue</name>
      </trkpt>
      <trkpt lat="43.170474" lon="0.915061">
        <ele>328.0</ele>
        <time>2012-11-02T09:03:39Z</time>
      </trkpt>
      <trkpt lat="43.170385" lon="0.915122">
        <ele>327.5</ele>
        <time>2012-11-02T09:03:52Z</time>
      </trkpt>
      <trkpt lat="43.170289" lon="0.915210">
        <ele>328.0</ele>
        <time>2012-11-02T09:04:15Z</time>
      </trkpt>
      <trkpt lat="43.170199" lon="0.915342">
        <ele>327.0</ele>
        <time>2012-11-02T09:04:26Z</time>
      </trkpt>
      <trkpt lat="43.170131" lon="0.915480">
        <ele>326.0</ele>
        <time>2012-11-02T09:04:36Z</time>
      </trkpt>
      <trkpt lat="43.170028" lon="0.915633">
        <ele>326.0</ele>
        <time>2012-11-02T09:04:47Z</time>
      </trkpt>
      <trkpt lat="43.169955" lon="0.915761">
        <ele>325.5</ele>
        <time>2012-11-02T09:04:57Z</time>
      </trkpt>
      <trkpt lat="43.169868" lon="0.915907">
        <ele>325.5</ele>
        <time>2012-11-02T09:05:10Z</time>
      </trkpt>
      <trkpt lat="43.169766" lon="0.916063">
        <ele>326.0</ele>
        <time>2012-11-02T09:05:21Z</time>
      </trkpt>
      <trkpt lat="43.169690" lon="0.916180">
        <ele>326.0</ele>
        <time>2012-11-02T09:05:29Z</time>
      </trkpt>
      <trkpt lat="43.169605" lon="0.916297">
        <ele>326.5</ele>
        <time>2012-11-02T09:05:37Z</time>
      </trkpt>
      <trkpt lat="43.169543" lon="0.916417">
        <ele>327.0</ele>
        <time>2012-11-02T09:05:45Z</time>
      </trkpt>
      <trkpt lat="43.169480" lon="0.916578">
        <ele>327.0</ele>
        <time>2012-11-02T09:05:56Z</time>
      </trkpt>
      <trkpt lat="43.169428" lon="0.916805">
        <ele>326.5</ele>
        <time>2012-11-02T09:06:10Z</time>
      </trkpt>
      <trkpt lat="43.169341" lon="0.916955">
        <ele>326.5</ele>
        <time>2012-11-02T09:06:20Z</time>
      </trkpt>
      <trkpt lat="43.169262" lon="0.917143">
        <ele>326.0</ele>
        <time>2012-11-02T09:06:31Z</time>
      </trkpt>
      <trkpt lat="43.169215" lon="0.917360">
        <ele>325.5</ele>
        <time>2012-11-02T09:06:43Z</time>
      </trkpt>
      <trkpt lat="43.169196" lon="0.917564">
        <ele>324.1</ele>
        <time>2012-11-02T09:06:53Z</time>
      </trkpt>
      <trkpt lat="43.169133" lon="0.917770">
        <ele>323.1</ele>
        <time>2012-11-02T09:07:04Z</time>
      </trkpt>
      <trkpt lat="43.169049" lon="0.917874">
        <ele>323.1</ele>
        <time>2012-11-02T09:07:13Z</time>
      </trkpt>
      <trkpt lat="43.168966" lon="0.917989">
        <ele>322.7</ele>
        <time>2012-11-02T09:07:21Z</time>
      </trkpt>
      <trkpt lat="43.168892" lon="0.918150">
        <ele>322.2</ele>
        <time>2012-11-02T09:07:34Z</time>
      </trkpt>
      <trkpt lat="43.168795" lon="0.918263">
        <ele>321.7</ele>
        <time>2012-11-02T09:07:44Z</time>
      </trkpt>
      <trkpt lat="43.168693" lon="0.918377">
        <ele>322.2</ele>
        <time>2012-11-02T09:07:53Z</time>
      </trkpt>
      <trkpt lat="43.168611" lon="0.918528">
        <ele>321.7</ele>
        <time>2012-11-02T09:08:01Z</time>
      </trkpt>
      <trkpt lat="43.168535" lon="0.918664">
        <ele>321.2</ele>
        <time>2012-11-02T09:08:09Z</time>
      </trkpt>
      <trkpt lat="43.168462" lon="0.918793">
        <ele>321.7</ele>
        <time>2012-11-02T09:08:17Z</time>
      </trkpt>
      <trkpt lat="43.168392" lon="0.918924">
        <ele>321.2</ele>
        <time>2012-11-02T09:08:24Z</time>
      </trkpt>
      <trkpt lat="43.168319" lon="0.919041">
        <ele>320.7</ele>
        <time>2012-11-02T09:08:31Z</time>
      </trkpt>
      <trkpt lat="43.168241" lon="0.919125">
        <ele>320.7</ele>
        <time>2012-11-02T09:08:38Z</time>
      </trkpt>
      <trkpt lat="43.168161" lon="0.919228">
        <ele>320.3</ele>
        <time>2012-11-02T09:08:46Z</time>
      </trkpt>
      <trkpt lat="43.168082" lon="0.919332">
        <ele>320.7</ele>
        <time>2012-11-02T09:08:54Z</time>
      </trkpt>
      <trkpt lat="43.167961" lon="0.919520">
        <ele>320.3</ele>
        <time>2012-11-02T09:09:05Z</time>
      </trkpt>
      <trkpt lat="43.167870" lon="0.919664">
        <ele>320.3</ele>
        <time>2012-11-02T09:09:14Z</time>
      </trkpt>
      <trkpt lat="43.167733" lon="0.919844">
        <ele>319.8</ele>
        <time>2012-11-02T09:09:59Z</time>
      </trkpt>
      <trkpt lat="43.167651" lon="0.919978">
        <ele>319.3</ele>
        <time>2012-11-02T09:10:08Z</time>
      </trkpt>
      <trkpt lat="43.167577" lon="0.920101">
        <ele>319.3</ele>
        <time>2012-11-02T09:10:17Z</time>
      </trkpt>
      <trkpt lat="43.167473" lon="0.920226">
        <ele>319.3</ele>
        <time>2012-11-02T09:10:25Z</time>
      </trkpt>
      <trkpt lat="43.167370" lon="0.920325">
        <ele>318.8</ele>
        <time>2012-11-02T09:10:33Z</time>
      </trkpt>
      <trkpt lat="43.167261" lon="0.920409">
        <ele>318.3</ele>
        <time>2012-11-02T09:10:41Z</time>
      </trkpt>
      <trkpt lat="43.167166" lon="0.920468">
        <ele>318.3</ele>
        <time>2012-11-02T09:10:49Z</time>
      </trkpt>
      <trkpt lat="43.167068" lon="0.920605">
        <ele>318.3</ele>
        <time>2012-11-02T09:10:59Z</time>
      </trkpt>
      <trkpt lat="43.166938" lon="0.920786">
        <ele>317.9</ele>
        <time>2012-11-02T09:11:10Z</time>
      </trkpt>
      <trkpt lat="43.166831" lon="0.921017">
        <ele>317.9</ele>
        <time>2012-11-02T09:11:23Z</time>
      </trkpt>
      <trkpt lat="43.166709" lon="0.921241">
        <ele>316.9</ele>
        <time>2012-11-02T09:11:35Z</time>
      </trkpt>
      <trkpt lat="43.166577" lon="0.921495">
        <ele>317.4</ele>
        <time>2012-11-02T09:11:51Z</time>
      </trkpt>
      <trkpt lat="43.166483" lon="0.921674">
        <ele>316.4</ele>
        <time>2012-11-02T09:12:12Z</time>
      </trkpt>
      <trkpt lat="43.166393" lon="0.921849">
        <ele>316.4</ele>
        <time>2012-11-02T09:12:27Z</time>
      </trkpt>
      <trkpt lat="43.166257" lon="0.922122">
        <ele>316.4</ele>
        <time>2012-11-02T09:12:44Z</time>
      </trkpt>
      <trkpt lat="43.166191" lon="0.922256">
        <ele>316.4</ele>
        <time>2012-11-02T09:12:53Z</time>
      </trkpt>
      <trkpt lat="43.166127" lon="0.922525">
        <ele>316.4</ele>
        <time>2012-11-02T09:13:07Z</time>
      </trkpt>
      <trkpt lat="43.166038" lon="0.922762">
        <ele>316.4</ele>
        <time>2012-11-02T09:13:19Z</time>
      </trkpt>
      <trkpt lat="43.166002" lon="0.922987">
        <ele>315.9</ele>
        <time>2012-11-02T09:13:31Z</time>
      </trkpt>
      <trkpt lat="43.166015" lon="0.923179">
        <ele>315.5</ele>
        <time>2012-11-02T09:13:43Z</time>
      </trkpt>
      <trkpt lat="43.165984" lon="0.923371">
        <ele>315.0</ele>
        <time>2012-11-02T09:13:51Z</time>
      </trkpt>
      <trkpt lat="43.165935" lon="0.923609">
        <ele>315.5</ele>
        <time>2012-11-02T09:14:01Z</time>
      </trkpt>
      <trkpt lat="43.165814" lon="0.923783">
        <ele>318.3</ele>
        <time>2012-11-02T09:14:10Z</time>
      </trkpt>
      <trkpt lat="43.165760" lon="0.923965">
        <ele>319.8</ele>
        <time>2012-11-02T09:14:20Z</time>
      </trkpt>
      <trkpt lat="43.165700" lon="0.924147">
        <ele>319.3</ele>
        <time>2012-11-02T09:14:30Z</time>
      </trkpt>
      <trkpt lat="43.165629" lon="0.924336">
        <ele>318.8</ele>
        <time>2012-11-02T09:14:40Z</time>
      </trkpt>
      <trkpt lat="43.165546" lon="0.924504">
        <ele>318.8</ele>
        <time>2012-11-02T09:14:50Z</time>
      </trkpt>
      <trkpt lat="43.165449" lon="0.924717">
        <ele>317.9</ele>
        <time>2012-11-02T09:15:03Z</time>
      </trkpt>
      <trkpt lat="43.165342" lon="0.924886">
        <ele>317.4</ele>
        <time>2012-11-02T09:15:26Z</time>
      </trkpt>
      <trkpt lat="43.165268" lon="0.925005">
        <ele>316.9</ele>
        <time>2012-11-02T09:15:33Z</time>
      </trkpt>
      <trkpt lat="43.165180" lon="0.925116">
        <ele>316.9</ele>
        <time>2012-11-02T09:15:41Z</time>
      </trkpt>
      <trkpt lat="43.165135" lon="0.925259">
        <ele>315.9</ele>
        <time>2012-11-02T09:15:49Z</time>
      </trkpt>
      <trkpt lat="43.165068" lon="0.925387">
        <ele>315.9</ele>
        <time>2012-11-02T09:15:57Z</time>
      </trkpt>
      <trkpt lat="43.165004" lon="0.925551">
        <ele>314.5</ele>
        <time>2012-11-02T09:16:06Z</time>
      </trkpt>
      <trkpt lat="43.164929" lon="0.925677">
        <ele>314.5</ele>
        <time>2012-11-02T09:16:13Z</time>
      </trkpt>
      <trkpt lat="43.164842" lon="0.925781">
        <ele>314.5</ele>
        <time>2012-11-02T09:16:20Z</time>
      </trkpt>
      <trkpt lat="43.164765" lon="0.925942">
        <ele>313.5</ele>
        <time>2012-11-02T09:16:30Z</time>
      </trkpt>
      <trkpt lat="43.164696" lon="0.926078">
        <ele>313.0</ele>
        <time>2012-11-02T09:16:38Z</time>
      </trkpt>
      <trkpt lat="43.164637" lon="0.926209">
        <ele>314.5</ele>
        <time>2012-11-02T09:16:47Z</time>
      </trkpt>
      <trkpt lat="43.164575" lon="0.926343">
        <ele>314.0</ele>
        <time>2012-11-02T09:16:56Z</time>
      </trkpt>
      <trkpt lat="43.164525" lon="0.926551">
        <ele>314.0</ele>
        <time>2012-11-02T09:17:08Z</time>
      </trkpt>
      <trkpt lat="43.164312" lon="0.926841">
        <ele>312.1</ele>
        <time>2012-11-02T09:17:45Z</time>
        <name>Bifurcation </name>
      </trkpt>
      <trkpt lat="43.164283" lon="0.926671">
        <ele>313.5</ele>
        <time>2012-11-02T09:18:01Z</time>
      </trkpt>
      <trkpt lat="43.164170" lon="0.926529">
        <ele>315.9</ele>
        <time>2012-11-02T09:18:16Z</time>
      </trkpt>
      <trkpt lat="43.164050" lon="0.926384">
        <ele>317.9</ele>
        <time>2012-11-02T09:18:29Z</time>
      </trkpt>
      <trkpt lat="43.163954" lon="0.926246">
        <ele>320.3</ele>
        <time>2012-11-02T09:18:42Z</time>
      </trkpt>
      <trkpt lat="43.164065" lon="0.926130">
        <ele>325.1</ele>
        <time>2012-11-02T09:19:56Z</time>
      </trkpt>
      <trkpt lat="43.164069" lon="0.925901">
        <ele>331.8</ele>
        <time>2012-11-02T09:20:14Z</time>
      </trkpt>
      <trkpt lat="43.164075" lon="0.925705">
        <ele>338.0</ele>
        <time>2012-11-02T09:20:32Z</time>
      </trkpt>
      <trkpt lat="43.164149" lon="0.925556">
        <ele>343.3</ele>
        <time>2012-11-02T09:20:52Z</time>
      </trkpt>
      <trkpt lat="43.164102" lon="0.925465">
        <ele>345.7</ele>
        <time>2012-11-02T09:21:07Z</time>
      </trkpt>
      <trkpt lat="43.164138" lon="0.925345">
        <ele>347.6</ele>
        <time>2012-11-02T09:21:17Z</time>
      </trkpt>
      <trkpt lat="43.164168" lon="0.925211">
        <ele>349.6</ele>
        <time>2012-11-02T09:21:49Z</time>
      </trkpt>
      <trkpt lat="43.164209" lon="0.925096">
        <ele>352.0</ele>
        <time>2012-11-02T09:21:58Z</time>
      </trkpt>
      <trkpt lat="43.164250" lon="0.924970">
        <ele>353.9</ele>
        <time>2012-11-02T09:22:08Z</time>
      </trkpt>
      <trkpt lat="43.164306" lon="0.924840">
        <ele>354.9</ele>
        <time>2012-11-02T09:22:17Z</time>
      </trkpt>
      <trkpt lat="43.164346" lon="0.924712">
        <ele>355.8</ele>
        <time>2012-11-02T09:22:26Z</time>
      </trkpt>
      <trkpt lat="43.164384" lon="0.924580">
        <ele>357.8</ele>
        <time>2012-11-02T09:22:35Z</time>
        <name>Sentier de crete</name>
      </trkpt>
      <trkpt lat="43.164424" lon="0.924448">
        <ele>359.2</ele>
        <time>2012-11-02T09:22:44Z</time>
      </trkpt>
      <trkpt lat="43.164458" lon="0.924298">
        <ele>360.6</ele>
        <time>2012-11-02T09:22:59Z</time>
      </trkpt>
      <trkpt lat="43.164514" lon="0.924185">
        <ele>362.1</ele>
        <time>2012-11-02T09:23:13Z</time>
      </trkpt>
      <trkpt lat="43.164548" lon="0.924054">
        <ele>362.1</ele>
        <time>2012-11-02T09:23:23Z</time>
      </trkpt>
      <trkpt lat="43.164591" lon="0.923881">
        <ele>363.0</ele>
        <time>2012-11-02T09:24:43Z</time>
      </trkpt>
      <trkpt lat="43.164627" lon="0.923766">
        <ele>363.5</ele>
        <time>2012-11-02T09:24:52Z</time>
      </trkpt>
      <trkpt lat="43.164678" lon="0.923640">
        <ele>364.5</ele>
        <time>2012-11-02T09:25:14Z</time>
      </trkpt>
      <trkpt lat="43.164742" lon="0.923513">
        <ele>364.0</ele>
        <time>2012-11-02T09:25:24Z</time>
      </trkpt>
      <trkpt lat="43.164799" lon="0.923380">
        <ele>364.0</ele>
        <time>2012-11-02T09:25:54Z</time>
      </trkpt>
      <trkpt lat="43.164857" lon="0.923313">
        <ele>364.5</ele>
        <time>2012-11-02T09:26:36Z</time>
      </trkpt>
      <trkpt lat="43.164904" lon="0.923195">
        <ele>363.5</ele>
        <time>2012-11-02T09:27:00Z</time>
      </trkpt>
      <trkpt lat="43.164980" lon="0.923064">
        <ele>361.6</ele>
        <time>2012-11-02T09:27:21Z</time>
      </trkpt>
      <trkpt lat="43.165034" lon="0.922932">
        <ele>360.1</ele>
        <time>2012-11-02T09:27:29Z</time>
      </trkpt>
      <trkpt lat="43.165066" lon="0.922863">
        <ele>359.7</ele>
        <time>2012-11-02T09:27:54Z</time>
      </trkpt>
      <trkpt lat="43.165126" lon="0.922738">
        <ele>359.2</ele>
        <time>2012-11-02T09:28:02Z</time>
      </trkpt>
      <trkpt lat="43.165184" lon="0.922619">
        <ele>358.2</ele>
        <time>2012-11-02T09:28:10Z</time>
      </trkpt>
      <trkpt lat="43.165245" lon="0.922493">
        <ele>357.3</ele>
        <time>2012-11-02T09:28:19Z</time>
      </trkpt>
      <trkpt lat="43.165295" lon="0.922345">
        <ele>357.3</ele>
        <time>2012-11-02T09:28:28Z</time>
      </trkpt>
      <trkpt lat="43.165350" lon="0.922211">
        <ele>357.8</ele>
        <time>2012-11-02T09:28:36Z</time>
      </trkpt>
      <trkpt lat="43.165404" lon="0.922073">
        <ele>357.8</ele>
        <time>2012-11-02T09:28:45Z</time>
      </trkpt>
      <trkpt lat="43.165474" lon="0.921926">
        <ele>357.8</ele>
        <time>2012-11-02T09:28:55Z</time>
      </trkpt>
      <trkpt lat="43.165500" lon="0.921764">
        <ele>356.8</ele>
        <time>2012-11-02T09:29:04Z</time>
      </trkpt>
      <trkpt lat="43.165559" lon="0.921602">
        <ele>356.8</ele>
        <time>2012-11-02T09:29:13Z</time>
      </trkpt>
      <trkpt lat="43.165612" lon="0.921459">
        <ele>356.3</ele>
        <time>2012-11-02T09:29:21Z</time>
      </trkpt>
      <trkpt lat="43.165679" lon="0.921322">
        <ele>356.8</ele>
        <time>2012-11-02T09:29:29Z</time>
      </trkpt>
      <trkpt lat="43.165733" lon="0.921181">
        <ele>357.3</ele>
        <time>2012-11-02T09:29:37Z</time>
      </trkpt>
      <trkpt lat="43.165804" lon="0.921056">
        <ele>357.8</ele>
        <time>2012-11-02T09:29:46Z</time>
      </trkpt>
      <trkpt lat="43.165860" lon="0.920878">
        <ele>360.1</ele>
        <time>2012-11-02T09:29:57Z</time>
      </trkpt>
      <trkpt lat="43.165927" lon="0.920739">
        <ele>360.6</ele>
        <time>2012-11-02T09:30:06Z</time>
      </trkpt>
      <trkpt lat="43.165967" lon="0.920589">
        <ele>362.1</ele>
        <time>2012-11-02T09:30:15Z</time>
      </trkpt>
      <trkpt lat="43.166027" lon="0.920430">
        <ele>363.0</ele>
        <time>2012-11-02T09:30:24Z</time>
      </trkpt>
      <trkpt lat="43.166090" lon="0.920290">
        <ele>364.0</ele>
        <time>2012-11-02T09:30:33Z</time>
      </trkpt>
      <trkpt lat="43.166159" lon="0.920137">
        <ele>365.9</ele>
        <time>2012-11-02T09:30:43Z</time>
      </trkpt>
      <trkpt lat="43.166250" lon="0.920031">
        <ele>367.4</ele>
        <time>2012-11-02T09:30:52Z</time>
      </trkpt>
      <trkpt lat="43.166308" lon="0.919902">
        <ele>367.8</ele>
        <time>2012-11-02T09:31:01Z</time>
      </trkpt>
      <trkpt lat="43.166333" lon="0.919743">
        <ele>371.2</ele>
        <time>2012-11-02T09:31:10Z</time>
      </trkpt>
      <trkpt lat="43.166376" lon="0.919593">
        <ele>374.6</ele>
        <time>2012-11-02T09:31:24Z</time>
      </trkpt>
      <trkpt lat="43.166435" lon="0.919458">
        <ele>377.0</ele>
        <time>2012-11-02T09:31:36Z</time>
      </trkpt>
      <trkpt lat="43.166478" lon="0.919323">
        <ele>378.4</ele>
        <time>2012-11-02T09:31:45Z</time>
      </trkpt>
      <trkpt lat="43.166544" lon="0.919198">
        <ele>381.3</ele>
        <time>2012-11-02T09:31:55Z</time>
      </trkpt>
      <trkpt lat="43.166577" lon="0.919059">
        <ele>384.7</ele>
        <time>2012-11-02T09:32:07Z</time>
      </trkpt>
      <trkpt lat="43.166620" lon="0.918928">
        <ele>387.1</ele>
        <time>2012-11-02T09:32:17Z</time>
      </trkpt>
      <trkpt lat="43.166653" lon="0.918785">
        <ele>389.0</ele>
        <time>2012-11-02T09:32:28Z</time>
      </trkpt>
      <trkpt lat="43.166674" lon="0.918633">
        <ele>392.4</ele>
        <time>2012-11-02T09:32:39Z</time>
      </trkpt>
      <trkpt lat="43.166720" lon="0.918474">
        <ele>394.3</ele>
        <time>2012-11-02T09:32:52Z</time>
      </trkpt>
      <trkpt lat="43.166770" lon="0.918326">
        <ele>395.7</ele>
        <time>2012-11-02T09:33:01Z</time>
      </trkpt>
      <trkpt lat="43.166797" lon="0.918188">
        <ele>398.1</ele>
        <time>2012-11-02T09:33:11Z</time>
      </trkpt>
      <trkpt lat="43.166827" lon="0.918034">
        <ele>400.0</ele>
        <time>2012-11-02T09:33:21Z</time>
      </trkpt>
      <trkpt lat="43.166931" lon="0.917915">
        <ele>400.5</ele>
        <time>2012-11-02T09:33:52Z</time>
      </trkpt>
      <trkpt lat="43.166937" lon="0.917750">
        <ele>402.5</ele>
        <time>2012-11-02T09:34:06Z</time>
      </trkpt>
      <trkpt lat="43.166965" lon="0.917596">
        <ele>404.4</ele>
        <time>2012-11-02T09:34:21Z</time>
      </trkpt>
      <trkpt lat="43.167042" lon="0.917457">
        <ele>406.3</ele>
        <time>2012-11-02T09:34:31Z</time>
      </trkpt>
      <trkpt lat="43.167057" lon="0.917273">
        <ele>407.7</ele>
        <time>2012-11-02T09:34:42Z</time>
      </trkpt>
      <trkpt lat="43.167088" lon="0.917097">
        <ele>409.7</ele>
        <time>2012-11-02T09:34:53Z</time>
      </trkpt>
      <trkpt lat="43.167152" lon="0.916951">
        <ele>410.1</ele>
        <time>2012-11-02T09:35:03Z</time>
      </trkpt>
      <trkpt lat="43.167214" lon="0.916827">
        <ele>410.6</ele>
        <time>2012-11-02T09:35:12Z</time>
      </trkpt>
      <trkpt lat="43.167203" lon="0.916647">
        <ele>412.1</ele>
        <time>2012-11-02T09:35:22Z</time>
        <name>Fin sentier de crete</name>
      </trkpt>
      <trkpt lat="43.167156" lon="0.916543">
        <ele>410.6</ele>
        <time>2012-11-02T09:36:44Z</time>
      </trkpt>
      <trkpt lat="43.167027" lon="0.916516">
        <ele>405.3</ele>
        <time>2012-11-02T09:36:58Z</time>
      </trkpt>
      <trkpt lat="43.166996" lon="0.916306">
        <ele>402.0</ele>
        <time>2012-11-02T09:37:09Z</time>
      </trkpt>
      <trkpt lat="43.166912" lon="0.916057">
        <ele>399.1</ele>
        <time>2012-11-02T09:37:21Z</time>
      </trkpt>
      <trkpt lat="43.166880" lon="0.915899">
        <ele>400.0</ele>
        <time>2012-11-02T09:37:50Z</time>
      </trkpt>
      <trkpt lat="43.166860" lon="0.915742">
        <ele>401.0</ele>
        <time>2012-11-02T09:38:03Z</time>
      </trkpt>
      <trkpt lat="43.166701" lon="0.915732">
        <ele>406.3</ele>
        <time>2012-11-02T09:38:20Z</time>
      </trkpt>
      <trkpt lat="43.166538" lon="0.915747">
        <ele>410.1</ele>
        <time>2012-11-02T09:38:37Z</time>
      </trkpt>
      <trkpt lat="43.166376" lon="0.915832">
        <ele>413.0</ele>
        <time>2012-11-02T09:38:53Z</time>
      </trkpt>
      <trkpt lat="43.166231" lon="0.915708">
        <ele>415.0</ele>
        <time>2012-11-02T09:39:12Z</time>
      </trkpt>
      <trkpt lat="43.166146" lon="0.915558">
        <ele>415.9</ele>
        <time>2012-11-02T09:39:26Z</time>
      </trkpt>
      <trkpt lat="43.166015" lon="0.915441">
        <ele>418.8</ele>
        <time>2012-11-02T09:39:39Z</time>
      </trkpt>
      <trkpt lat="43.165851" lon="0.915425">
        <ele>421.2</ele>
        <time>2012-11-02T09:39:52Z</time>
      </trkpt>
      <trkpt lat="43.165726" lon="0.915304">
        <ele>423.1</ele>
        <time>2012-11-02T09:40:14Z</time>
      </trkpt>
      <trkpt lat="43.165666" lon="0.915307">
        <ele>422.6</ele>
        <time>2012-11-02T09:41:16Z</time>
        <name>Carrefour Jean-Ferrat</name>
      </trkpt>
      <trkpt lat="43.165562" lon="0.915121">
        <ele>421.7</ele>
        <time>2012-11-02T09:41:30Z</time>
      </trkpt>
      <trkpt lat="43.165463" lon="0.915040">
        <ele>419.8</ele>
        <time>2012-11-02T09:41:42Z</time>
      </trkpt>
      <trkpt lat="43.165353" lon="0.915055">
        <ele>418.3</ele>
        <time>2012-11-02T09:41:53Z</time>
      </trkpt>
      <trkpt lat="43.165232" lon="0.915064">
        <ele>416.9</ele>
        <time>2012-11-02T09:42:03Z</time>
      </trkpt>
      <trkpt lat="43.165110" lon="0.915074">
        <ele>415.4</ele>
        <time>2012-11-02T09:42:13Z</time>
      </trkpt>
      <trkpt lat="43.165038" lon="0.915070">
        <ele>414.5</ele>
        <time>2012-11-02T09:42:25Z</time>
      </trkpt>
      <trkpt lat="43.164963" lon="0.915092">
        <ele>414.0</ele>
        <time>2012-11-02T09:42:43Z</time>
      </trkpt>
      <trkpt lat="43.164832" lon="0.915090">
        <ele>412.5</ele>
        <time>2012-11-02T09:43:15Z</time>
      </trkpt>
      <trkpt lat="43.164696" lon="0.915070">
        <ele>410.1</ele>
        <time>2012-11-02T09:43:26Z</time>
      </trkpt>
      <trkpt lat="43.164568" lon="0.915044">
        <ele>407.7</ele>
        <time>2012-11-02T09:43:38Z</time>
      </trkpt>
      <trkpt lat="43.164440" lon="0.914990">
        <ele>405.8</ele>
        <time>2012-11-02T09:43:48Z</time>
      </trkpt>
      <trkpt lat="43.164317" lon="0.914910">
        <ele>403.9</ele>
        <time>2012-11-02T09:43:57Z</time>
      </trkpt>
      <trkpt lat="43.164212" lon="0.914843">
        <ele>402.5</ele>
        <time>2012-11-02T09:44:05Z</time>
      </trkpt>
      <trkpt lat="43.164097" lon="0.914758">
        <ele>400.5</ele>
        <time>2012-11-02T09:44:16Z</time>
      </trkpt>
      <trkpt lat="43.163995" lon="0.914634">
        <ele>398.6</ele>
        <time>2012-11-02T09:44:27Z</time>
      </trkpt>
      <trkpt lat="43.163883" lon="0.914479">
        <ele>396.7</ele>
        <time>2012-11-02T09:44:39Z</time>
      </trkpt>
      <trkpt lat="43.163831" lon="0.914328">
        <ele>394.8</ele>
        <time>2012-11-02T09:44:49Z</time>
      </trkpt>
      <trkpt lat="43.163751" lon="0.914131">
        <ele>392.8</ele>
        <time>2012-11-02T09:46:04Z</time>
      </trkpt>
      <trkpt lat="43.163710" lon="0.913996">
        <ele>391.4</ele>
        <time>2012-11-02T09:46:12Z</time>
      </trkpt>
      <trkpt lat="43.163631" lon="0.913930">
        <ele>389.5</ele>
        <time>2012-11-02T09:46:19Z</time>
      </trkpt>
      <trkpt lat="43.163545" lon="0.913889">
        <ele>388.5</ele>
        <time>2012-11-02T09:46:25Z</time>
      </trkpt>
      <trkpt lat="43.163469" lon="0.913839">
        <ele>386.1</ele>
        <time>2012-11-02T09:46:34Z</time>
      </trkpt>
      <trkpt lat="43.163370" lon="0.913855">
        <ele>385.6</ele>
        <time>2012-11-02T09:46:59Z</time>
      </trkpt>
      <trkpt lat="43.163273" lon="0.913845">
        <ele>383.7</ele>
        <time>2012-11-02T09:47:07Z</time>
      </trkpt>
      <trkpt lat="43.163161" lon="0.913823">
        <ele>381.8</ele>
        <time>2012-11-02T09:47:16Z</time>
      </trkpt>
      <trkpt lat="43.163043" lon="0.913772">
        <ele>381.3</ele>
        <time>2012-11-02T09:47:24Z</time>
      </trkpt>
      <trkpt lat="43.163045" lon="0.913609">
        <ele>380.8</ele>
        <time>2012-11-02T09:47:32Z</time>
      </trkpt>
      <trkpt lat="43.163091" lon="0.913462">
        <ele>380.8</ele>
        <time>2012-11-02T09:47:40Z</time>
      </trkpt>
      <trkpt lat="43.163119" lon="0.913319">
        <ele>380.3</ele>
        <time>2012-11-02T09:47:50Z</time>
      </trkpt>
      <trkpt lat="43.163166" lon="0.913166">
        <ele>378.9</ele>
        <time>2012-11-02T09:48:00Z</time>
      </trkpt>
      <trkpt lat="43.163187" lon="0.913006">
        <ele>377.9</ele>
        <time>2012-11-02T09:48:09Z</time>
      </trkpt>
      <trkpt lat="43.163209" lon="0.912857">
        <ele>377.0</ele>
        <time>2012-11-02T09:48:17Z</time>
      </trkpt>
      <trkpt lat="43.163235" lon="0.912703">
        <ele>376.0</ele>
        <time>2012-11-02T09:48:27Z</time>
      </trkpt>
      <trkpt lat="43.163272" lon="0.912534">
        <ele>375.0</ele>
        <time>2012-11-02T09:48:38Z</time>
      </trkpt>
      <trkpt lat="43.163300" lon="0.912372">
        <ele>374.1</ele>
        <time>2012-11-02T09:48:49Z</time>
      </trkpt>
      <trkpt lat="43.163333" lon="0.912212">
        <ele>373.6</ele>
        <time>2012-11-02T09:49:00Z</time>
      </trkpt>
      <trkpt lat="43.163337" lon="0.912055">
        <ele>373.1</ele>
        <time>2012-11-02T09:49:11Z</time>
      </trkpt>
      <trkpt lat="43.163302" lon="0.911891">
        <ele>373.6</ele>
        <time>2012-11-02T09:49:21Z</time>
      </trkpt>
      <trkpt lat="43.163248" lon="0.911757">
        <ele>374.1</ele>
        <time>2012-11-02T09:49:31Z</time>
      </trkpt>
      <trkpt lat="43.163183" lon="0.911613">
        <ele>374.6</ele>
        <time>2012-11-02T09:49:41Z</time>
      </trkpt>
      <trkpt lat="43.163108" lon="0.911490">
        <ele>374.1</ele>
        <time>2012-11-02T09:49:50Z</time>
      </trkpt>
      <trkpt lat="43.163045" lon="0.911314">
        <ele>374.1</ele>
        <time>2012-11-02T09:49:59Z</time>
      </trkpt>
      <trkpt lat="43.162969" lon="0.911158">
        <ele>374.1</ele>
        <time>2012-11-02T09:50:07Z</time>
      </trkpt>
      <trkpt lat="43.162883" lon="0.911008">
        <ele>373.6</ele>
        <time>2012-11-02T09:50:15Z</time>
      </trkpt>
      <trkpt lat="43.162806" lon="0.910896">
        <ele>373.1</ele>
        <time>2012-11-02T09:50:22Z</time>
      </trkpt>
      <trkpt lat="43.162824" lon="0.910751">
        <ele>371.7</ele>
        <time>2012-11-02T09:50:31Z</time>
      </trkpt>
      <trkpt lat="43.162902" lon="0.910631">
        <ele>369.8</ele>
        <time>2012-11-02T09:50:39Z</time>
      </trkpt>
      <trkpt lat="43.162968" lon="0.910531">
        <ele>368.8</ele>
        <time>2012-11-02T09:50:47Z</time>
      </trkpt>
      <trkpt lat="43.163020" lon="0.910412">
        <ele>367.4</ele>
        <time>2012-11-02T09:50:55Z</time>
      </trkpt>
      <trkpt lat="43.163052" lon="0.910262">
        <ele>366.4</ele>
        <time>2012-11-02T09:51:02Z</time>
      </trkpt>
      <trkpt lat="43.163058" lon="0.910115">
        <ele>365.0</ele>
        <time>2012-11-02T09:51:10Z</time>
      </trkpt>
      <trkpt lat="43.163043" lon="0.909972">
        <ele>364.0</ele>
        <time>2012-11-02T09:51:17Z</time>
      </trkpt>
      <trkpt lat="43.163015" lon="0.909835">
        <ele>362.5</ele>
        <time>2012-11-02T09:51:24Z</time>
      </trkpt>
      <trkpt lat="43.162965" lon="0.909713">
        <ele>361.1</ele>
        <time>2012-11-02T09:51:31Z</time>
      </trkpt>
      <trkpt lat="43.162871" lon="0.909632">
        <ele>360.1</ele>
        <time>2012-11-02T09:51:38Z</time>
      </trkpt>
      <trkpt lat="43.162771" lon="0.909643">
        <ele>359.2</ele>
        <time>2012-11-02T09:51:45Z</time>
      </trkpt>
      <trkpt lat="43.162651" lon="0.909673">
        <ele>357.8</ele>
        <time>2012-11-02T09:51:53Z</time>
      </trkpt>
      <trkpt lat="43.162540" lon="0.909681">
        <ele>356.8</ele>
        <time>2012-11-02T09:52:00Z</time>
      </trkpt>
      <trkpt lat="43.162442" lon="0.909621">
        <ele>356.3</ele>
        <time>2012-11-02T09:52:07Z</time>
      </trkpt>
      <trkpt lat="43.162392" lon="0.909487">
        <ele>356.3</ele>
        <time>2012-11-02T09:52:15Z</time>
      </trkpt>
      <trkpt lat="43.162428" lon="0.909361">
        <ele>355.8</ele>
        <time>2012-11-02T09:52:22Z</time>
      </trkpt>
      <trkpt lat="43.162490" lon="0.909242">
        <ele>356.8</ele>
        <time>2012-11-02T09:52:30Z</time>
      </trkpt>
      <trkpt lat="43.162550" lon="0.909100">
        <ele>358.2</ele>
        <time>2012-11-02T09:52:38Z</time>
      </trkpt>
      <trkpt lat="43.162596" lon="0.908967">
        <ele>359.7</ele>
        <time>2012-11-02T09:52:45Z</time>
      </trkpt>
      <trkpt lat="43.162654" lon="0.908860">
        <ele>360.6</ele>
        <time>2012-11-02T09:52:52Z</time>
      </trkpt>
      <trkpt lat="43.162704" lon="0.908734">
        <ele>361.6</ele>
        <time>2012-11-02T09:52:59Z</time>
      </trkpt>
      <trkpt lat="43.162787" lon="0.908616">
        <ele>361.6</ele>
        <time>2012-11-02T09:53:08Z</time>
      </trkpt>
      <trkpt lat="43.162903" lon="0.908570">
        <ele>360.6</ele>
        <time>2012-11-02T09:53:15Z</time>
      </trkpt>
      <trkpt lat="43.162980" lon="0.908499">
        <ele>359.7</ele>
        <time>2012-11-02T09:53:22Z</time>
      </trkpt>
      <trkpt lat="43.163059" lon="0.908424">
        <ele>358.7</ele>
        <time>2012-11-02T09:53:30Z</time>
      </trkpt>
      <trkpt lat="43.163144" lon="0.908321">
        <ele>357.8</ele>
        <time>2012-11-02T09:53:37Z</time>
      </trkpt>
      <trkpt lat="43.163232" lon="0.908193">
        <ele>356.3</ele>
        <time>2012-11-02T09:53:46Z</time>
      </trkpt>
      <trkpt lat="43.163261" lon="0.908042">
        <ele>354.9</ele>
        <time>2012-11-02T09:53:55Z</time>
      </trkpt>
      <trkpt lat="43.163269" lon="0.907904">
        <ele>353.4</ele>
        <time>2012-11-02T09:54:03Z</time>
      </trkpt>
      <trkpt lat="43.163252" lon="0.907765">
        <ele>352.0</ele>
        <time>2012-11-02T09:54:13Z</time>
      </trkpt>
      <trkpt lat="43.163161" lon="0.907630">
        <ele>350.5</ele>
        <time>2012-11-02T09:54:23Z</time>
      </trkpt>
      <trkpt lat="43.163058" lon="0.907579">
        <ele>349.1</ele>
        <time>2012-11-02T09:54:32Z</time>
      </trkpt>
      <trkpt lat="43.162960" lon="0.907522">
        <ele>348.1</ele>
        <time>2012-11-02T09:54:41Z</time>
        <name>Carrefour 2</name>
      </trkpt>
      <trkpt lat="43.162957" lon="0.907417">
        <ele>346.7</ele>
        <time>2012-11-02T09:55:06Z</time>
      </trkpt>
      <trkpt lat="43.163059" lon="0.907466">
        <ele>346.7</ele>
        <time>2012-11-02T09:55:44Z</time>
      </trkpt>
      <trkpt lat="43.163164" lon="0.907488">
        <ele>345.7</ele>
        <time>2012-11-02T09:55:54Z</time>
      </trkpt>
      <trkpt lat="43.163263" lon="0.907532">
        <ele>345.2</ele>
        <time>2012-11-02T09:56:03Z</time>
      </trkpt>
      <trkpt lat="43.163365" lon="0.907724">
        <ele>344.3</ele>
        <time>2012-11-02T09:56:16Z</time>
      </trkpt>
      <trkpt lat="43.163463" lon="0.908002">
        <ele>341.9</ele>
        <time>2012-11-02T09:56:35Z</time>
      </trkpt>
      <trkpt lat="43.163620" lon="0.908161">
        <ele>339.0</ele>
        <time>2012-11-02T09:56:52Z</time>
      </trkpt>
      <trkpt lat="43.163767" lon="0.908174">
        <ele>337.6</ele>
        <time>2012-11-02T09:57:11Z</time>
      </trkpt>
      <trkpt lat="43.163881" lon="0.908251">
        <ele>336.6</ele>
        <time>2012-11-02T09:57:21Z</time>
      </trkpt>
      <trkpt lat="43.163938" lon="0.908322">
        <ele>335.6</ele>
        <time>2012-11-02T09:57:31Z</time>
      </trkpt>
      <trkpt lat="43.164039" lon="0.908330">
        <ele>335.2</ele>
        <time>2012-11-02T09:57:51Z</time>
      </trkpt>
      <trkpt lat="43.163991" lon="0.908347">
        <ele>334.7</ele>
        <time>2012-11-02T09:58:30Z</time>
      </trkpt>
      <trkpt lat="43.163961" lon="0.908361">
        <ele>335.6</ele>
        <time>2012-11-02T09:59:06Z</time>
      </trkpt>
      <trkpt lat="43.164107" lon="0.908602">
        <ele>335.2</ele>
        <time>2012-11-02T09:59:23Z</time>
      </trkpt>
      <trkpt lat="43.164104" lon="0.908585">
        <ele>335.2</ele>
        <time>2012-11-02T09:59:35Z</time>
      </trkpt>
      <trkpt lat="43.164084" lon="0.908717">
        <ele>334.7</ele>
        <time>2012-11-02T09:59:52Z</time>
      </trkpt>
      <trkpt lat="43.164067" lon="0.908920">
        <ele>334.2</ele>
        <time>2012-11-02T10:00:05Z</time>
      </trkpt>
      <trkpt lat="43.164149" lon="0.909130">
        <ele>333.7</ele>
        <time>2012-11-02T10:00:18Z</time>
      </trkpt>
      <trkpt lat="43.164237" lon="0.909243">
        <ele>333.2</ele>
        <time>2012-11-02T10:00:27Z</time>
      </trkpt>
      <trkpt lat="43.164318" lon="0.909400">
        <ele>332.8</ele>
        <time>2012-11-02T10:00:39Z</time>
      </trkpt>
      <trkpt lat="43.164405" lon="0.909582">
        <ele>332.8</ele>
        <time>2012-11-02T10:00:48Z</time>
      </trkpt>
      <trkpt lat="43.164499" lon="0.909757">
        <ele>332.3</ele>
        <time>2012-11-02T10:00:58Z</time>
      </trkpt>
      <trkpt lat="43.164594" lon="0.909958">
        <ele>331.8</ele>
        <time>2012-11-02T10:01:08Z</time>
      </trkpt>
      <trkpt lat="43.164707" lon="0.910122">
        <ele>330.8</ele>
        <time>2012-11-02T10:01:34Z</time>
      </trkpt>
      <trkpt lat="43.164757" lon="0.910228">
        <ele>329.9</ele>
        <time>2012-11-02T10:01:42Z</time>
      </trkpt>
      <trkpt lat="43.164793" lon="0.910266">
        <ele>329.4</ele>
        <time>2012-11-02T10:02:32Z</time>
      </trkpt>
      <trkpt lat="43.164860" lon="0.910363">
        <ele>328.4</ele>
        <time>2012-11-02T10:02:45Z</time>
      </trkpt>
      <trkpt lat="43.164943" lon="0.910475">
        <ele>328.4</ele>
        <time>2012-11-02T10:02:57Z</time>
      </trkpt>
      <trkpt lat="43.165016" lon="0.910584">
        <ele>328.0</ele>
        <time>2012-11-02T10:03:05Z</time>
      </trkpt>
      <trkpt lat="43.165109" lon="0.910628">
        <ele>327.0</ele>
        <time>2012-11-02T10:03:13Z</time>
      </trkpt>
      <trkpt lat="43.165217" lon="0.910652">
        <ele>326.5</ele>
        <time>2012-11-02T10:03:22Z</time>
      </trkpt>
      <trkpt lat="43.165337" lon="0.910700">
        <ele>326.5</ele>
        <time>2012-11-02T10:03:33Z</time>
      </trkpt>
      <trkpt lat="43.165448" lon="0.910749">
        <ele>325.5</ele>
        <time>2012-11-02T10:03:43Z</time>
      </trkpt>
      <trkpt lat="43.165553" lon="0.910775">
        <ele>325.1</ele>
        <time>2012-11-02T10:03:51Z</time>
      </trkpt>
      <trkpt lat="43.165666" lon="0.910764">
        <ele>324.1</ele>
        <time>2012-11-02T10:04:00Z</time>
      </trkpt>
      <trkpt lat="43.165763" lon="0.910753">
        <ele>323.1</ele>
        <time>2012-11-02T10:04:08Z</time>
      </trkpt>
      <trkpt lat="43.165868" lon="0.910748">
        <ele>322.7</ele>
        <time>2012-11-02T10:04:17Z</time>
      </trkpt>
      <trkpt lat="43.165972" lon="0.910692">
        <ele>322.7</ele>
        <time>2012-11-02T10:04:28Z</time>
      </trkpt>
      <trkpt lat="43.166082" lon="0.910677">
        <ele>322.2</ele>
        <time>2012-11-02T10:04:37Z</time>
      </trkpt>
      <trkpt lat="43.166287" lon="0.910659">
        <ele>321.2</ele>
        <time>2012-11-02T10:04:50Z</time>
      </trkpt>
      <trkpt lat="43.166432" lon="0.910627">
        <ele>320.3</ele>
        <time>2012-11-02T10:05:00Z</time>
      </trkpt>
      <trkpt lat="43.166550" lon="0.910614">
        <ele>318.8</ele>
        <time>2012-11-02T10:05:10Z</time>
      </trkpt>
      <trkpt lat="43.166654" lon="0.910616">
        <ele>318.3</ele>
        <time>2012-11-02T10:05:18Z</time>
      </trkpt>
      <trkpt lat="43.166770" lon="0.910618">
        <ele>317.9</ele>
        <time>2012-11-02T10:05:27Z</time>
      </trkpt>
      <trkpt lat="43.166894" lon="0.910629">
        <ele>317.4</ele>
        <time>2012-11-02T10:05:36Z</time>
      </trkpt>
      <trkpt lat="43.167037" lon="0.910631">
        <ele>316.9</ele>
        <time>2012-11-02T10:05:47Z</time>
      </trkpt>
      <trkpt lat="43.167178" lon="0.910631">
        <ele>316.4</ele>
        <time>2012-11-02T10:05:59Z</time>
      </trkpt>
      <trkpt lat="43.167338" lon="0.910652">
        <ele>315.5</ele>
        <time>2012-11-02T10:06:08Z</time>
      </trkpt>
      <trkpt lat="43.167484" lon="0.910669">
        <ele>315.5</ele>
        <time>2012-11-02T10:06:18Z</time>
      </trkpt>
      <trkpt lat="43.167613" lon="0.910656">
        <ele>315.5</ele>
        <time>2012-11-02T10:06:27Z</time>
      </trkpt>
      <trkpt lat="43.167742" lon="0.910574">
        <ele>315.0</ele>
        <time>2012-11-02T10:06:36Z</time>
      </trkpt>
      <trkpt lat="43.167891" lon="0.910562">
        <ele>315.0</ele>
        <time>2012-11-02T10:06:48Z</time>
      </trkpt>
      <trkpt lat="43.168039" lon="0.910545">
        <ele>314.5</ele>
        <time>2012-11-02T10:06:59Z</time>
      </trkpt>
      <trkpt lat="43.168251" lon="0.910605">
        <ele>314.0</ele>
        <time>2012-11-02T10:07:15Z</time>
      </trkpt>
      <trkpt lat="43.168514" lon="0.910561">
        <ele>314.5</ele>
        <time>2012-11-02T10:07:32Z</time>
      </trkpt>
      <trkpt lat="43.168703" lon="0.910542">
        <ele>313.5</ele>
        <time>2012-11-02T10:07:57Z</time>
      </trkpt>
      <trkpt lat="43.168879" lon="0.910502">
        <ele>312.1</ele>
        <time>2012-11-02T10:08:22Z</time>
      </trkpt>
      <trkpt lat="43.169090" lon="0.910510">
        <ele>310.6</ele>
        <time>2012-11-02T10:08:46Z</time>
      </trkpt>
      <trkpt lat="43.169289" lon="0.910449">
        <ele>310.6</ele>
        <time>2012-11-02T10:09:04Z</time>
        <name>Passerelle</name>
      </trkpt>
      <trkpt lat="43.169410" lon="0.910528">
        <ele>310.2</ele>
        <time>2012-11-02T10:09:18Z</time>
      </trkpt>
      <trkpt lat="43.169599" lon="0.910659">
        <ele>310.2</ele>
        <time>2012-11-02T10:09:34Z</time>
      </trkpt>
      <trkpt lat="43.169780" lon="0.910745">
        <ele>309.7</ele>
        <time>2012-11-02T10:09:51Z</time>
      </trkpt>
      <trkpt lat="43.169931" lon="0.910784">
        <ele>309.2</ele>
        <time>2012-11-02T10:10:06Z</time>
      </trkpt>
      <trkpt lat="43.170112" lon="0.910820">
        <ele>306.8</ele>
        <time>2012-11-02T10:10:22Z</time>
      </trkpt>
      <trkpt lat="43.170227" lon="0.910914">
        <ele>306.8</ele>
        <time>2012-11-02T10:10:32Z</time>
      </trkpt>
      <trkpt lat="43.170298" lon="0.911071">
        <ele>306.8</ele>
        <time>2012-11-02T10:10:42Z</time>
      </trkpt>
      <trkpt lat="43.170324" lon="0.911218">
        <ele>306.3</ele>
        <time>2012-11-02T10:10:51Z</time>
      </trkpt>
      <trkpt lat="43.170324" lon="0.911360">
        <ele>305.8</ele>
        <time>2012-11-02T10:11:00Z</time>
      </trkpt>
      <trkpt lat="43.170325" lon="0.911512">
        <ele>305.4</ele>
        <time>2012-11-02T10:11:09Z</time>
      </trkpt>
      <trkpt lat="43.170305" lon="0.911676">
        <ele>305.8</ele>
        <time>2012-11-02T10:11:19Z</time>
      </trkpt>
      <trkpt lat="43.170300" lon="0.911845">
        <ele>304.9</ele>
        <time>2012-11-02T10:11:29Z</time>
      </trkpt>
      <trkpt lat="43.170307" lon="0.911999">
        <ele>304.9</ele>
        <time>2012-11-02T10:11:38Z</time>
      </trkpt>
      <trkpt lat="43.170344" lon="0.912164">
        <ele>304.9</ele>
        <time>2012-11-02T10:11:48Z</time>
      </trkpt>
      <trkpt lat="43.170406" lon="0.912334">
        <ele>303.9</ele>
        <time>2012-11-02T10:11:58Z</time>
      </trkpt>
      <trkpt lat="43.170444" lon="0.912499">
        <ele>303.4</ele>
        <time>2012-11-02T10:12:09Z</time>
      </trkpt>
      <trkpt lat="43.170492" lon="0.912657">
        <ele>303.4</ele>
        <time>2012-11-02T10:12:19Z</time>
      </trkpt>
      <trkpt lat="43.170522" lon="0.912811">
        <ele>303.0</ele>
        <time>2012-11-02T10:12:29Z</time>
      </trkpt>
      <trkpt lat="43.170545" lon="0.912977">
        <ele>302.5</ele>
        <time>2012-11-02T10:12:40Z</time>
      </trkpt>
      <trkpt lat="43.170581" lon="0.913119">
        <ele>302.0</ele>
        <time>2012-11-02T10:12:48Z</time>
      </trkpt>
      <trkpt lat="43.170644" lon="0.913221">
        <ele>302.0</ele>
        <time>2012-11-02T10:12:56Z</time>
      </trkpt>
      <trkpt lat="43.170725" lon="0.913311">
        <ele>301.0</ele>
        <time>2012-11-02T10:13:04Z</time>
      </trkpt>
      <trkpt lat="43.170786" lon="0.913427">
        <ele>300.5</ele>
        <time>2012-11-02T10:13:12Z</time>
      </trkpt>
      <trkpt lat="43.170785" lon="0.913571">
        <ele>300.5</ele>
        <time>2012-11-02T10:13:20Z</time>
      </trkpt>
      <trkpt lat="43.170754" lon="0.913700">
        <ele>300.5</ele>
        <time>2012-11-02T10:13:28Z</time>
      </trkpt>
      <trkpt lat="43.170727" lon="0.913842">
        <ele>300.5</ele>
        <time>2012-11-02T10:13:37Z</time>
      </trkpt>
      <trkpt lat="43.170683" lon="0.913997">
        <ele>300.5</ele>
        <time>2012-11-02T10:13:49Z</time>
      </trkpt>
      <trkpt lat="43.170649" lon="0.914143">
        <ele>300.5</ele>
        <time>2012-11-02T10:13:58Z</time>
      </trkpt>
      <trkpt lat="43.170631" lon="0.914297">
        <ele>301.0</ele>
        <time>2012-11-02T10:14:07Z</time>
      </trkpt>
      <trkpt lat="43.170601" lon="0.914451">
        <ele>300.5</ele>
        <time>2012-11-02T10:14:16Z</time>
      </trkpt>
      <trkpt lat="43.170578" lon="0.914596">
        <ele>300.5</ele>
        <time>2012-11-02T10:14:29Z</time>
      </trkpt>
      <trkpt lat="43.170529" lon="0.914739">
        <ele>300.5</ele>
        <time>2012-11-02T10:14:38Z</time>
      </trkpt>
      <trkpt lat="43.170500" lon="0.914883">
        <ele>300.5</ele>
        <time>2012-11-02T10:14:47Z</time>
      </trkpt>
      <trkpt lat="43.170515" lon="0.915053">
        <ele>300.1</ele>
        <time>2012-11-02T10:14:57Z</time>
      </trkpt>
      <trkpt lat="43.170619" lon="0.915139">
        <ele>300.5</ele>
        <time>2012-11-02T10:15:07Z</time>
      </trkpt>
      <trkpt lat="43.170689" lon="0.915224">
        <ele>299.6</ele>
        <time>2012-11-02T10:15:15Z</time>
      </trkpt>
      <trkpt lat="43.170746" lon="0.915332">
        <ele>300.1</ele>
        <time>2012-11-02T10:15:23Z</time>
      </trkpt>
      <trkpt lat="43.170847" lon="0.915467">
        <ele>300.1</ele>
        <time>2012-11-02T10:15:33Z</time>
      </trkpt>
      <trkpt lat="43.170946" lon="0.915608">
        <ele>300.1</ele>
        <time>2012-11-02T10:15:43Z</time>
      </trkpt>
      <trkpt lat="43.170879" lon="0.915707">
        <ele>300.1</ele>
        <time>2012-11-02T10:15:52Z</time>
      </trkpt>
      <trkpt lat="43.170805" lon="0.915882">
        <ele>300.1</ele>
        <time>2012-11-02T10:16:07Z</time>
      </trkpt>
      <trkpt lat="43.170733" lon="0.916034">
        <ele>300.1</ele>
        <time>2012-11-02T10:16:17Z</time>
      </trkpt>
      <trkpt lat="43.170678" lon="0.916196">
        <ele>300.1</ele>
        <time>2012-11-02T10:16:27Z</time>
      </trkpt>
      <trkpt lat="43.170575" lon="0.916362">
        <ele>300.1</ele>
        <time>2012-11-02T10:16:38Z</time>
      </trkpt>
      <trkpt lat="43.170522" lon="0.916549">
        <ele>299.6</ele>
        <time>2012-11-02T10:16:48Z</time>
      </trkpt>
      <trkpt lat="43.170494" lon="0.916716">
        <ele>299.6</ele>
        <time>2012-11-02T10:16:59Z</time>
      </trkpt>
      <trkpt lat="43.170485" lon="0.916867">
        <ele>299.6</ele>
        <time>2012-11-02T10:17:05Z</time>
      </trkpt>
      <trkpt lat="43.170430" lon="0.916974">
        <ele>300.1</ele>
        <time>2012-11-02T10:17:12Z</time>
      </trkpt>
      <trkpt lat="43.170354" lon="0.917081">
        <ele>300.1</ele>
        <time>2012-11-02T10:17:22Z</time>
      </trkpt>
    </trkseg>
  </trk>
</gpx>

